Aviation Digital Data Service (ADDS)

Output produced by METARs form (1933 UTC 19 August 2019)
found at http://www.aviationweather.gov/metar/data/
 
METAR text: YPCC 191925Z AUTO 10013KT 9999 // SCT022 SCT030 SCT046 24/22 Q1014
Conditions at: YPCC (COCOS ISL INTL A, AU) observed 1925 UTC 19 August 2019
Temperature: 24.0°C (75°F)
Dewpoint: 22.0°C (72°F) [RH = 89%]
Pressure (altimeter): 29.94 inches Hg (1014.0 mb)
Winds: from the E (100 degrees) at 15 MPH (13 knots; 6.7 m/s)
Visibility: 6 or more miles (10+ km)
Ceiling: at least 12,000 feet AGL
Clouds: scattered clouds at 2200 feet AGL
scattered clouds at 3000 feet AGL
scattered clouds at 4600 feet AGL
Weather: no significant weather observed at this time

METAR text: YPCC 191900Z AUTO 12015KT 4700 // SCT023 BKN026 BKN032 24/22 Q1015
Conditions at: YPCC (COCOS ISL INTL A, AU) observed 1900 UTC 19 August 2019
Temperature: 24.0°C (75°F)
Dewpoint: 22.0°C (72°F) [RH = 89%]
Pressure (altimeter): 29.97 inches Hg (1015.0 mb)
Winds: from the ESE (120 degrees) at 17 MPH (15 knots; 7.7 m/s)
Visibility: 2.92 miles (4.70 km)
Ceiling: 2600 feet AGL
Clouds: scattered clouds at 2300 feet AGL
broken clouds at 2600 feet AGL
broken clouds at 3200 feet AGL
Weather: no significant weather observed at this time

METAR text: YPCC 191844Z AUTO 11013KT 6000 // SCT027 SCT034 BKN043 23/22 Q1015
Conditions at: YPCC (COCOS ISL INTL A, AU) observed 1844 UTC 19 August 2019
Temperature: 23.0°C (73°F)
Dewpoint: 22.0°C (72°F) [RH = 94%]
Pressure (altimeter): 29.97 inches Hg (1015.0 mb)
Winds: from the ESE (110 degrees) at 15 MPH (13 knots; 6.7 m/s)
Visibility: 4 miles ( 6 km)
Ceiling: 4300 feet AGL
Clouds: scattered clouds at 2700 feet AGL
scattered clouds at 3400 feet AGL
broken clouds at 4300 feet AGL
Weather: no significant weather observed at this time

METAR text: YPCC 191830Z AUTO 11014KT 9999 // SCT032 BKN077 24/21 Q1015
Conditions at: YPCC (COCOS ISL INTL A, AU) observed 1830 UTC 19 August 2019
Temperature: 24.0°C (75°F)
Dewpoint: 21.0°C (70°F) [RH = 83%]
Pressure (altimeter): 29.97 inches Hg (1015.0 mb)
Winds: from the ESE (110 degrees) at 16 MPH (14 knots; 7.2 m/s)
Visibility: 6 or more miles (10+ km)
Ceiling: 7700 feet AGL
Clouds: scattered clouds at 3200 feet AGL
broken clouds at 7700 feet AGL
Weather: no significant weather observed at this time

METAR text: YPCC 191800Z AUTO 10012KT 9999 // SCT030 SCT043 BKN058 25/21 Q1015
Conditions at: YPCC (COCOS ISL INTL A, AU) observed 1800 UTC 19 August 2019
Temperature: 25.0°C (77°F)
Dewpoint: 21.0°C (70°F) [RH = 79%]
Pressure (altimeter): 29.97 inches Hg (1015.0 mb)
Winds: from the E (100 degrees) at 14 MPH (12 knots; 6.2 m/s)
Visibility: 6 or more miles (10+ km)
Ceiling: 5800 feet AGL
Clouds: scattered clouds at 3000 feet AGL
scattered clouds at 4300 feet AGL
broken clouds at 5800 feet AGL
Weather: no significant weather observed at this time

METAR text: YPCC 191730Z AUTO 10014KT 9999 // SCT020 BKN026 BKN039 25/22 Q1015
Conditions at: YPCC (COCOS ISL INTL A, AU) observed 1730 UTC 19 August 2019
Temperature: 25.0°C (77°F)
Dewpoint: 22.0°C (72°F) [RH = 83%]
Pressure (altimeter): 29.97 inches Hg (1015.0 mb)
Winds: from the E (100 degrees) at 16 MPH (14 knots; 7.2 m/s)
Visibility: 6 or more miles (10+ km)
Ceiling: 2600 feet AGL
Clouds: scattered clouds at 2000 feet AGL
broken clouds at 2600 feet AGL
broken clouds at 3900 feet AGL
Weather: no significant weather observed at this time

METAR text: YPCC 191700Z AUTO 09020KT 9999 // SCT020 SCT025 BKN039 25/22 Q1016
Conditions at: YPCC (COCOS ISL INTL A, AU) observed 1700 UTC 19 August 2019
Temperature: 25.0°C (77°F)
Dewpoint: 22.0°C (72°F) [RH = 83%]
Pressure (altimeter): 30.00 inches Hg (1016.0 mb)
Winds: from the E (90 degrees) at 23 MPH (20 knots; 10.3 m/s)
Visibility: 6 or more miles (10+ km)
Ceiling: 3900 feet AGL
Clouds: scattered clouds at 2000 feet AGL
scattered clouds at 2500 feet AGL
broken clouds at 3900 feet AGL
Weather: no significant weather observed at this time

METAR text: YPCC 191630Z AUTO 09019KT 9999 // SCT020 SCT032 25/22 Q1016
Conditions at: YPCC (COCOS ISL INTL A, AU) observed 1630 UTC 19 August 2019
Temperature: 25.0°C (77°F)
Dewpoint: 22.0°C (72°F) [RH = 83%]
Pressure (altimeter): 30.00 inches Hg (1016.0 mb)
Winds: from the E (90 degrees) at 22 MPH (19 knots; 9.8 m/s)
Visibility: 6 or more miles (10+ km)
Ceiling: at least 12,000 feet AGL
Clouds: scattered clouds at 2000 feet AGL
scattered clouds at 3200 feet AGL
Weather: no significant weather observed at this time

METAR text: YPCC 191600Z AUTO 09019KT 9999 // SCT025 BKN066 BKN076 25/21 Q1016
Conditions at: YPCC (COCOS ISL INTL A, AU) observed 1600 UTC 19 August 2019
Temperature: 25.0°C (77°F)
Dewpoint: 21.0°C (70°F) [RH = 79%]
Pressure (altimeter): 30.00 inches Hg (1016.0 mb)
Winds: from the E (90 degrees) at 22 MPH (19 knots; 9.8 m/s)
Visibility: 6 or more miles (10+ km)
Ceiling: 6600 feet AGL
Clouds: scattered clouds at 2500 feet AGL
broken clouds at 6600 feet AGL
broken clouds at 7600 feet AGL
Weather: no significant weather observed at this time

METAR text: YPCC 191530Z AUTO 09019KT 9999 // SCT024 OVC055 25/22 Q1016
Conditions at: YPCC (COCOS ISL INTL A, AU) observed 1530 UTC 19 August 2019
Temperature: 25.0°C (77°F)
Dewpoint: 22.0°C (72°F) [RH = 83%]
Pressure (altimeter): 30.00 inches Hg (1016.0 mb)
Winds: from the E (90 degrees) at 22 MPH (19 knots; 9.8 m/s)
Visibility: 6 or more miles (10+ km)
Ceiling: 5500 feet AGL
Clouds: scattered clouds at 2400 feet AGL
overcast cloud deck at 5500 feet AGL
Weather: no significant weather observed at this time

METAR text: YPCC 191514Z AUTO 09021G31KT 6000 // BKN022 BKN032 BKN049 25/22 Q1016
Conditions at: YPCC (COCOS ISL INTL A, AU) observed 1514 UTC 19 August 2019
Temperature: 25.0°C (77°F)
Dewpoint: 22.0°C (72°F) [RH = 83%]
Pressure (altimeter): 30.00 inches Hg (1016.0 mb)
Winds: from the E (90 degrees) at 24 MPH (21 knots; 10.8 m/s)
gusting to 36 MPH (31 knots; 15.9 m/s)
Visibility: 4 miles ( 6 km)
Ceiling: 2200 feet AGL
Clouds: broken clouds at 2200 feet AGL
broken clouds at 3200 feet AGL
broken clouds at 4900 feet AGL
Weather: no significant weather observed at this time

METAR text: YPCC 191509Z AUTO 09020G31KT 9999 // BKN022 BKN030 BKN058 25/21 Q1016
Conditions at: YPCC (COCOS ISL INTL A, AU) observed 1509 UTC 19 August 2019
Temperature: 25.0°C (77°F)
Dewpoint: 21.0°C (70°F) [RH = 79%]
Pressure (altimeter): 30.00 inches Hg (1016.0 mb)
Winds: from the E (90 degrees) at 23 MPH (20 knots; 10.3 m/s)
gusting to 36 MPH (31 knots; 15.9 m/s)
Visibility: 6 or more miles (10+ km)
Ceiling: 2200 feet AGL
Clouds: broken clouds at 2200 feet AGL
broken clouds at 3000 feet AGL
broken clouds at 5800 feet AGL
Weather: no significant weather observed at this time

METAR text: YPCC 191500Z AUTO 10019KT 9999 // SCT024 BKN058 26/22 Q1016
Conditions at: YPCC (COCOS ISL INTL A, AU) observed 1500 UTC 19 August 2019
Temperature: 26.0°C (79°F)
Dewpoint: 22.0°C (72°F) [RH = 79%]
Pressure (altimeter): 30.00 inches Hg (1016.0 mb)
Winds: from the E (100 degrees) at 22 MPH (19 knots; 9.8 m/s)
Visibility: 6 or more miles (10+ km)
Ceiling: 5800 feet AGL
Clouds: scattered clouds at 2400 feet AGL
broken clouds at 5800 feet AGL
Weather: no significant weather observed at this time

METAR text: YPCC 191430Z AUTO 08020KT 9999 // SCT024 SCT032 SCT041 25/22 Q1016
Conditions at: YPCC (COCOS ISL INTL A, AU) observed 1430 UTC 19 August 2019
Temperature: 25.0°C (77°F)
Dewpoint: 22.0°C (72°F) [RH = 83%]
Pressure (altimeter): 30.00 inches Hg (1016.0 mb)
Winds: from the E (80 degrees) at 23 MPH (20 knots; 10.3 m/s)
Visibility: 6 or more miles (10+ km)
Ceiling: at least 12,000 feet AGL
Clouds: scattered clouds at 2400 feet AGL
scattered clouds at 3200 feet AGL
scattered clouds at 4100 feet AGL
Weather: no significant weather observed at this time

METAR text: YPCC 191400Z AUTO 09020KT 9999 // SCT024 SCT036 BKN044 26/22 Q1016
Conditions at: YPCC (COCOS ISL INTL A, AU) observed 1400 UTC 19 August 2019
Temperature: 26.0°C (79°F)
Dewpoint: 22.0°C (72°F) [RH = 79%]
Pressure (altimeter): 30.00 inches Hg (1016.0 mb)
Winds: from the E (90 degrees) at 23 MPH (20 knots; 10.3 m/s)
Visibility: 6 or more miles (10+ km)
Ceiling: 4400 feet AGL
Clouds: scattered clouds at 2400 feet AGL
scattered clouds at 3600 feet AGL
broken clouds at 4400 feet AGL
Weather: no significant weather observed at this time

METAR text: YPCC 191330Z AUTO 10018KT 9999 // SCT024 BKN038 BKN044 26/21 Q1016
Conditions at: YPCC (COCOS ISL INTL A, AU) observed 1330 UTC 19 August 2019
Temperature: 26.0°C (79°F)
Dewpoint: 21.0°C (70°F) [RH = 74%]
Pressure (altimeter): 30.00 inches Hg (1016.0 mb)
Winds: from the E (100 degrees) at 21 MPH (18 knots; 9.3 m/s)
Visibility: 6 or more miles (10+ km)
Ceiling: 3800 feet AGL
Clouds: scattered clouds at 2400 feet AGL
broken clouds at 3800 feet AGL
broken clouds at 4400 feet AGL
Weather: no significant weather observed at this time

METAR text: YPCC 191300Z AUTO 10018KT 9999 // SCT026 SCT035 SCT041 26/21 Q1016
Conditions at: YPCC (COCOS ISL INTL A, AU) observed 1300 UTC 19 August 2019
Temperature: 26.0°C (79°F)
Dewpoint: 21.0°C (70°F) [RH = 74%]
Pressure (altimeter): 30.00 inches Hg (1016.0 mb)
Winds: from the E (100 degrees) at 21 MPH (18 knots; 9.3 m/s)
Visibility: 6 or more miles (10+ km)
Ceiling: at least 12,000 feet AGL
Clouds: scattered clouds at 2600 feet AGL
scattered clouds at 3500 feet AGL
scattered clouds at 4100 feet AGL
Weather: no significant weather observed at this time

METAR text: YPCC 191230Z AUTO 10014KT 9999 // SCT024 BKN035 BKN042 26/21 Q1015
Conditions at: YPCC (COCOS ISL INTL A, AU) observed 1230 UTC 19 August 2019
Temperature: 26.0°C (79°F)
Dewpoint: 21.0°C (70°F) [RH = 74%]
Pressure (altimeter): 29.97 inches Hg (1015.0 mb)
Winds: from the E (100 degrees) at 16 MPH (14 knots; 7.2 m/s)
Visibility: 6 or more miles (10+ km)
Ceiling: 3500 feet AGL
Clouds: scattered clouds at 2400 feet AGL
broken clouds at 3500 feet AGL
broken clouds at 4200 feet AGL
Weather: no significant weather observed at this time

METAR text: YPCC 191200Z AUTO 10016KT 9999 // SCT025 SCT035 BKN042 26/21 Q1015
Conditions at: YPCC (COCOS ISL INTL A, AU) observed 1200 UTC 19 August 2019
Temperature: 26.0°C (79°F)
Dewpoint: 21.0°C (70°F) [RH = 74%]
Pressure (altimeter): 29.97 inches Hg (1015.0 mb)
Winds: from the E (100 degrees) at 18 MPH (16 knots; 8.2 m/s)
Visibility: 6 or more miles (10+ km)
Ceiling: 4200 feet AGL
Clouds: scattered clouds at 2500 feet AGL
scattered clouds at 3500 feet AGL
broken clouds at 4200 feet AGL
Weather: no significant weather observed at this time

METAR text: YPCC 191130Z AUTO 10012KT 9999 // SCT025 BKN030 BKN037 26/21 Q1015
Conditions at: YPCC (COCOS ISL INTL A, AU) observed 1130 UTC 19 August 2019
Temperature: 26.0°C (79°F)
Dewpoint: 21.0°C (70°F) [RH = 74%]
Pressure (altimeter): 29.97 inches Hg (1015.0 mb)
Winds: from the E (100 degrees) at 14 MPH (12 knots; 6.2 m/s)
Visibility: 6 or more miles (10+ km)
Ceiling: 3000 feet AGL
Clouds: scattered clouds at 2500 feet AGL
broken clouds at 3000 feet AGL
broken clouds at 3700 feet AGL
Weather: no significant weather observed at this time

METAR text: YPCC 191100Z AUTO 11011KT 9999 // SCT021 SCT032 BKN041 26/22 Q1015
Conditions at: YPCC (COCOS ISL INTL A, AU) observed 1100 UTC 19 August 2019
Temperature: 26.0°C (79°F)
Dewpoint: 22.0°C (72°F) [RH = 79%]
Pressure (altimeter): 29.97 inches Hg (1015.0 mb)
Winds: from the ESE (110 degrees) at 13 MPH (11 knots; 5.7 m/s)
Visibility: 6 or more miles (10+ km)
Ceiling: 4100 feet AGL
Clouds: scattered clouds at 2100 feet AGL
scattered clouds at 3200 feet AGL
broken clouds at 4100 feet AGL
Weather: no significant weather observed at this time

METAR text: YPCC 191030Z AUTO 10019KT 9999 // SCT026 SCT034 BKN044 26/22 Q1014
Conditions at: YPCC (COCOS ISL INTL A, AU) observed 1030 UTC 19 August 2019
Temperature: 26.0°C (79°F)
Dewpoint: 22.0°C (72°F) [RH = 79%]
Pressure (altimeter): 29.94 inches Hg (1014.0 mb)
Winds: from the E (100 degrees) at 22 MPH (19 knots; 9.8 m/s)
Visibility: 6 or more miles (10+ km)
Ceiling: 4400 feet AGL
Clouds: scattered clouds at 2600 feet AGL
scattered clouds at 3400 feet AGL
broken clouds at 4400 feet AGL
Weather: no significant weather observed at this time

METAR text: YPCC 191000Z AUTO 10015KT 9999 // SCT024 BKN033 BKN040 26/21 Q1014
Conditions at: YPCC (COCOS ISL INTL A, AU) observed 1000 UTC 19 August 2019
Temperature: 26.0°C (79°F)
Dewpoint: 21.0°C (70°F) [RH = 74%]
Pressure (altimeter): 29.94 inches Hg (1014.0 mb)
Winds: from the E (100 degrees) at 17 MPH (15 knots; 7.7 m/s)
Visibility: 6 or more miles (10+ km)
Ceiling: 3300 feet AGL
Clouds: scattered clouds at 2400 feet AGL
broken clouds at 3300 feet AGL
broken clouds at 4000 feet AGL
Weather: no significant weather observed at this time

METAR text: YPCC 190930Z AUTO 11013KT 9999 // SCT024 SCT035 26/22 Q1014
Conditions at: YPCC (COCOS ISL INTL A, AU) observed 0930 UTC 19 August 2019
Temperature: 26.0°C (79°F)
Dewpoint: 22.0°C (72°F) [RH = 79%]
Pressure (altimeter): 29.94 inches Hg (1014.0 mb)
Winds: from the ESE (110 degrees) at 15 MPH (13 knots; 6.7 m/s)
Visibility: 6 or more miles (10+ km)
Ceiling: at least 12,000 feet AGL
Clouds: scattered clouds at 2400 feet AGL
scattered clouds at 3500 feet AGL
Weather: no significant weather observed at this time

METAR text: YPCC 190900Z AUTO 11014KT 9999 // BKN022 OVC030 27/22 Q1014
Conditions at: YPCC (COCOS ISL INTL A, AU) observed 0900 UTC 19 August 2019
Temperature: 27.0°C (81°F)
Dewpoint: 22.0°C (72°F) [RH = 74%]
Pressure (altimeter): 29.94 inches Hg (1014.0 mb)
Winds: from the ESE (110 degrees) at 16 MPH (14 knots; 7.2 m/s)
Visibility: 6 or more miles (10+ km)
Ceiling: 2200 feet AGL
Clouds: broken clouds at 2200 feet AGL
overcast cloud deck at 3000 feet AGL
Weather: no significant weather observed at this time

METAR text: YPCC 190830Z 11015KT 9999 FEW023 27/22 Q1014
Conditions at: YPCC (COCOS ISL INTL A, AU) observed 0830 UTC 19 August 2019
Temperature: 27.0°C (81°F)
Dewpoint: 22.0°C (72°F) [RH = 74%]
Pressure (altimeter): 29.94 inches Hg (1014.0 mb)
Winds: from the ESE (110 degrees) at 17 MPH (15 knots; 7.7 m/s)
Visibility: 6 or more miles (10+ km)
Ceiling: at least 12,000 feet AGL
Clouds: few clouds at 2300 feet AGL
Weather: no significant weather observed at this time

METAR text: YPCC 190800Z 10016KT 9999 FEW026 27/22 Q1014
Conditions at: YPCC (COCOS ISL INTL A, AU) observed 0800 UTC 19 August 2019
Temperature: 27.0°C (81°F)
Dewpoint: 22.0°C (72°F) [RH = 74%]
Pressure (altimeter): 29.94 inches Hg (1014.0 mb)
Winds: from the E (100 degrees) at 18 MPH (16 knots; 8.2 m/s)
Visibility: 6 or more miles (10+ km)
Ceiling: at least 12,000 feet AGL
Clouds: few clouds at 2600 feet AGL
Weather: no significant weather observed at this time

METAR text: YPCC 190730Z 11013KT 9999 FEW026 27/22 Q1014
Conditions at: YPCC (COCOS ISL INTL A, AU) observed 0730 UTC 19 August 2019
Temperature: 27.0°C (81°F)
Dewpoint: 22.0°C (72°F) [RH = 74%]
Pressure (altimeter): 29.94 inches Hg (1014.0 mb)
Winds: from the ESE (110 degrees) at 15 MPH (13 knots; 6.7 m/s)
Visibility: 6 or more miles (10+ km)
Ceiling: at least 12,000 feet AGL
Clouds: few clouds at 2600 feet AGL
Weather: no significant weather observed at this time

METAR text: YPCC 190700Z 10018KT 9999 FEW026 27/22 Q1015
Conditions at: YPCC (COCOS ISL INTL A, AU) observed 0700 UTC 19 August 2019
Temperature: 27.0°C (81°F)
Dewpoint: 22.0°C (72°F) [RH = 74%]
Pressure (altimeter): 29.97 inches Hg (1015.0 mb)
Winds: from the E (100 degrees) at 21 MPH (18 knots; 9.3 m/s)
Visibility: 6 or more miles (10+ km)
Ceiling: at least 12,000 feet AGL
Clouds: few clouds at 2600 feet AGL
Weather: no significant weather observed at this time

METAR text: YPCC 190630Z 09021KT 9999 FEW026 28/22 Q1015
Conditions at: YPCC (COCOS ISL INTL A, AU) observed 0630 UTC 19 August 2019
Temperature: 28.0°C (82°F)
Dewpoint: 22.0°C (72°F) [RH = 70%]
Pressure (altimeter): 29.97 inches Hg (1015.0 mb)
Winds: from the E (90 degrees) at 24 MPH (21 knots; 10.8 m/s)
Visibility: 6 or more miles (10+ km)
Ceiling: at least 12,000 feet AGL
Clouds: few clouds at 2600 feet AGL
Weather: no significant weather observed at this time

METAR text: YPCC 190600Z 10016KT 9999 FEW026 27/22 Q1015
Conditions at: YPCC (COCOS ISL INTL A, AU) observed 0600 UTC 19 August 2019
Temperature: 27.0°C (81°F)
Dewpoint: 22.0°C (72°F) [RH = 74%]
Pressure (altimeter): 29.97 inches Hg (1015.0 mb)
Winds: from the E (100 degrees) at 18 MPH (16 knots; 8.2 m/s)
Visibility: 6 or more miles (10+ km)
Ceiling: at least 12,000 feet AGL
Clouds: few clouds at 2600 feet AGL
Weather: no significant weather observed at this time

METAR text: YPCC 190530Z 09018KT 9999 FEW025 27/22 Q1016
Conditions at: YPCC (COCOS ISL INTL A, AU) observed 0530 UTC 19 August 2019
Temperature: 27.0°C (81°F)
Dewpoint: 22.0°C (72°F) [RH = 74%]
Pressure (altimeter): 30.00 inches Hg (1016.0 mb)
Winds: from the E (90 degrees) at 21 MPH (18 knots; 9.3 m/s)
Visibility: 6 or more miles (10+ km)
Ceiling: at least 12,000 feet AGL
Clouds: few clouds at 2500 feet AGL
Weather: no significant weather observed at this time

METAR text: YPCC 190500Z 10017KT 9999 FEW025 26/21 Q1016
Conditions at: YPCC (COCOS ISL INTL A, AU) observed 0500 UTC 19 August 2019
Temperature: 26.0°C (79°F)
Dewpoint: 21.0°C (70°F) [RH = 74%]
Pressure (altimeter): 30.00 inches Hg (1016.0 mb)
Winds: from the E (100 degrees) at 20 MPH (17 knots; 8.7 m/s)
Visibility: 6 or more miles (10+ km)
Ceiling: at least 12,000 feet AGL
Clouds: few clouds at 2500 feet AGL
Weather: no significant weather observed at this time

METAR text: YPCC 190430Z 10018KT 9999 FEW024 27/21 Q1016
Conditions at: YPCC (COCOS ISL INTL A, AU) observed 0430 UTC 19 August 2019
Temperature: 27.0°C (81°F)
Dewpoint: 21.0°C (70°F) [RH = 70%]
Pressure (altimeter): 30.00 inches Hg (1016.0 mb)
Winds: from the E (100 degrees) at 21 MPH (18 knots; 9.3 m/s)
Visibility: 6 or more miles (10+ km)
Ceiling: at least 12,000 feet AGL
Clouds: few clouds at 2400 feet AGL
Weather: no significant weather observed at this time

METAR text: YPCC 190400Z 10020KT 9999 FEW025 26/21 Q1016
Conditions at: YPCC (COCOS ISL INTL A, AU) observed 0400 UTC 19 August 2019
Temperature: 26.0°C (79°F)
Dewpoint: 21.0°C (70°F) [RH = 74%]
Pressure (altimeter): 30.00 inches Hg (1016.0 mb)
Winds: from the E (100 degrees) at 23 MPH (20 knots; 10.3 m/s)
Visibility: 6 or more miles (10+ km)
Ceiling: at least 12,000 feet AGL
Clouds: few clouds at 2500 feet AGL
Weather: no significant weather observed at this time

METAR text: YPCC 190330Z 09019KT 9999 FEW025 26/21 Q1017
Conditions at: YPCC (COCOS ISL INTL A, AU) observed 0330 UTC 19 August 2019
Temperature: 26.0°C (79°F)
Dewpoint: 21.0°C (70°F) [RH = 74%]
Pressure (altimeter): 30.03 inches Hg (1017.0 mb)
Winds: from the E (90 degrees) at 22 MPH (19 knots; 9.8 m/s)
Visibility: 6 or more miles (10+ km)
Ceiling: at least 12,000 feet AGL
Clouds: few clouds at 2500 feet AGL
Weather: no significant weather observed at this time

METAR text: YPCC 190300Z 09019KT 9999 FEW025 26/21 Q1017
Conditions at: YPCC (COCOS ISL INTL A, AU) observed 0300 UTC 19 August 2019
Temperature: 26.0°C (79°F)
Dewpoint: 21.0°C (70°F) [RH = 74%]
Pressure (altimeter): 30.03 inches Hg (1017.0 mb)
Winds: from the E (90 degrees) at 22 MPH (19 knots; 9.8 m/s)
Visibility: 6 or more miles (10+ km)
Ceiling: at least 12,000 feet AGL
Clouds: few clouds at 2500 feet AGL
Weather: no significant weather observed at this time

METAR text: YPCC 190230Z 10017KT 9999 FEW025 26/21 Q1016
Conditions at: YPCC (COCOS ISL INTL A, AU) observed 0230 UTC 19 August 2019
Temperature: 26.0°C (79°F)
Dewpoint: 21.0°C (70°F) [RH = 74%]
Pressure (altimeter): 30.00 inches Hg (1016.0 mb)
Winds: from the E (100 degrees) at 20 MPH (17 knots; 8.7 m/s)
Visibility: 6 or more miles (10+ km)
Ceiling: at least 12,000 feet AGL
Clouds: few clouds at 2500 feet AGL
Weather: no significant weather observed at this time

METAR text: YPCC 190203Z 10015G25KT 9999 SCT025 26/21 Q1016 RF00/0/001/0
Conditions at: YPCC (COCOS ISL INTL A, AU) observed 0203 UTC 19 August 2019
Temperature: 26.0°C (79°F)
Dewpoint: 21.0°C (70°F) [RH = 74%]
Pressure (altimeter): 30.00 inches Hg (1016.0 mb)
Winds: from the E (100 degrees) at 17 MPH (15 knots; 7.7 m/s)
gusting to 29 MPH (25 knots; 12.9 m/s)
Visibility: 6 or more miles (10+ km)
Ceiling: at least 12,000 feet AGL
Clouds: scattered clouds at 2500 feet AGL
Weather: no significant weather observed at this time

METAR text: YPCC 190200Z 11012KT 9999 SCT025 26/21 Q1016
Conditions at: YPCC (COCOS ISL INTL A, AU) observed 0200 UTC 19 August 2019
Temperature: 26.0°C (79°F)
Dewpoint: 21.0°C (70°F) [RH = 74%]
Pressure (altimeter): 30.00 inches Hg (1016.0 mb)
Winds: from the ESE (110 degrees) at 14 MPH (12 knots; 6.2 m/s)
Visibility: 6 or more miles (10+ km)
Ceiling: at least 12,000 feet AGL
Clouds: scattered clouds at 2500 feet AGL
Weather: no significant weather observed at this time

METAR text: YPCC 190130Z 10018KT 9999 FEW026 26/20 Q1016
Conditions at: YPCC (COCOS ISL INTL A, AU) observed 0130 UTC 19 August 2019
Temperature: 26.0°C (79°F)
Dewpoint: 20.0°C (68°F) [RH = 70%]
Pressure (altimeter): 30.00 inches Hg (1016.0 mb)
Winds: from the E (100 degrees) at 21 MPH (18 knots; 9.3 m/s)
Visibility: 6 or more miles (10+ km)
Ceiling: at least 12,000 feet AGL
Clouds: few clouds at 2600 feet AGL
Weather: no significant weather observed at this time

METAR text: YPCC 190100Z 10017KT 9999 FEW025 25/20 Q1016
Conditions at: YPCC (COCOS ISL INTL A, AU) observed 0100 UTC 19 August 2019
Temperature: 25.0°C (77°F)
Dewpoint: 20.0°C (68°F) [RH = 74%]
Pressure (altimeter): 30.00 inches Hg (1016.0 mb)
Winds: from the E (100 degrees) at 20 MPH (17 knots; 8.7 m/s)
Visibility: 6 or more miles (10+ km)
Ceiling: at least 12,000 feet AGL
Clouds: few clouds at 2500 feet AGL
Weather: no significant weather observed at this time

METAR text: YPCC 190030Z 10018KT 9999 VCSH FEW024 BKN064 25/21 Q1016 RF00.0/001.0
Conditions at: YPCC (COCOS ISL INTL A, AU) observed 0030 UTC 19 August 2019
Temperature: 25.0°C (77°F)
Dewpoint: 21.0°C (70°F) [RH = 79%]
Pressure (altimeter): 30.00 inches Hg (1016.0 mb)
Winds: from the E (100 degrees) at 21 MPH (18 knots; 9.3 m/s)
Visibility: 6 or more miles (10+ km)
Ceiling: 6400 feet AGL
Clouds: few clouds at 2400 feet AGL
broken clouds at 6400 feet AGL
Weather: VCSH  (showers in vicinity)

METAR text: YPCC 190000Z AUTO 10016KT 9999 // SCT063 OVC073 25/21 Q1016
Conditions at: YPCC (COCOS ISL INTL A, AU) observed 0000 UTC 19 August 2019
Temperature: 25.0°C (77°F)
Dewpoint: 21.0°C (70°F) [RH = 79%]
Pressure (altimeter): 30.00 inches Hg (1016.0 mb)
Winds: from the E (100 degrees) at 18 MPH (16 knots; 8.2 m/s)
Visibility: 6 or more miles (10+ km)
Ceiling: 7300 feet AGL
Clouds: scattered clouds at 6300 feet AGL
overcast cloud deck at 7300 feet AGL
Weather: no significant weather observed at this time

METAR text: YPCC 182330Z AUTO 09021KT 8000 // SCT024 BKN030 BKN040 24/21 Q1016
Conditions at: YPCC (COCOS ISL INTL A, AU) observed 2330 UTC 18 August 2019
Temperature: 24.0°C (75°F)
Dewpoint: 21.0°C (70°F) [RH = 83%]
Pressure (altimeter): 30.00 inches Hg (1016.0 mb)
Winds: from the E (90 degrees) at 24 MPH (21 knots; 10.8 m/s)
Visibility: 5 miles ( 8 km)
Ceiling: 3000 feet AGL
Clouds: scattered clouds at 2400 feet AGL
broken clouds at 3000 feet AGL
broken clouds at 4000 feet AGL
Weather: no significant weather observed at this time

METAR text: YPCC 182300Z AUTO 10013KT 9999 // SCT024 SCT065 BKN074 25/21 Q1015
Conditions at: YPCC (COCOS ISL INTL A, AU) observed 2300 UTC 18 August 2019
Temperature: 25.0°C (77°F)
Dewpoint: 21.0°C (70°F) [RH = 79%]
Pressure (altimeter): 29.97 inches Hg (1015.0 mb)
Winds: from the E (100 degrees) at 15 MPH (13 knots; 6.7 m/s)
Visibility: 6 or more miles (10+ km)
Ceiling: 7400 feet AGL
Clouds: scattered clouds at 2400 feet AGL
scattered clouds at 6500 feet AGL
broken clouds at 7400 feet AGL
Weather: no significant weather observed at this time

METAR text: YPCC 182230Z AUTO 10012KT 9999 // BKN072 25/21 Q1015 RF00.0/001.0
Conditions at: YPCC (COCOS ISL INTL A, AU) observed 2230 UTC 18 August 2019
Temperature: 25.0°C (77°F)
Dewpoint: 21.0°C (70°F) [RH = 79%]
Pressure (altimeter): 29.97 inches Hg (1015.0 mb)
Winds: from the E (100 degrees) at 14 MPH (12 knots; 6.2 m/s)
Visibility: 6 or more miles (10+ km)
Ceiling: 7200 feet AGL
Clouds: broken clouds at 7200 feet AGL
Weather: no significant weather observed at this time

METAR text: YPCC 182200Z AUTO 10020KT 9999 // SCT021 SCT050 BKN065 24/20 Q1015
Conditions at: YPCC (COCOS ISL INTL A, AU) observed 2200 UTC 18 August 2019
Temperature: 24.0°C (75°F)
Dewpoint: 20.0°C (68°F) [RH = 78%]
Pressure (altimeter): 29.97 inches Hg (1015.0 mb)
Winds: from the E (100 degrees) at 23 MPH (20 knots; 10.3 m/s)
Visibility: 6 or more miles (10+ km)
Ceiling: 6500 feet AGL
Clouds: scattered clouds at 2100 feet AGL
scattered clouds at 5000 feet AGL
broken clouds at 6500 feet AGL
Weather: no significant weather observed at this time

METAR text: YPCC 182158Z AUTO 10020KT 9999 // SCT021 SCT040 OVC073 24/20 Q1015
Conditions at: YPCC (COCOS ISL INTL A, AU) observed 2158 UTC 18 August 2019
Temperature: 24.0°C (75°F)
Dewpoint: 20.0°C (68°F) [RH = 78%]
Pressure (altimeter): 29.97 inches Hg (1015.0 mb)
Winds: from the E (100 degrees) at 23 MPH (20 knots; 10.3 m/s)
Visibility: 6 or more miles (10+ km)
Ceiling: 7300 feet AGL
Clouds: scattered clouds at 2100 feet AGL
scattered clouds at 4000 feet AGL
overcast cloud deck at 7300 feet AGL
Weather: no significant weather observed at this time

METAR text: YPCC 182130Z AUTO 10009KT 9999 // SCT019 SCT028 SCT045 24/21 Q1015
Conditions at: YPCC (COCOS ISL INTL A, AU) observed 2130 UTC 18 August 2019
Temperature: 24.0°C (75°F)
Dewpoint: 21.0°C (70°F) [RH = 83%]
Pressure (altimeter): 29.97 inches Hg (1015.0 mb)
Winds: from the E (100 degrees) at 10 MPH (9 knots; 4.6 m/s)
Visibility: 6 or more miles (10+ km)
Ceiling: at least 12,000 feet AGL
Clouds: scattered clouds at 1900 feet AGL
scattered clouds at 2800 feet AGL
scattered clouds at 4500 feet AGL
Weather: no significant weather observed at this time

METAR text: YPCC 182128Z AUTO 11009KT 9999 // SCT019 SCT028 SCT045 24/22 Q1015
Conditions at: YPCC (COCOS ISL INTL A, AU) observed 2128 UTC 18 August 2019
Temperature: 24.0°C (75°F)
Dewpoint: 22.0°C (72°F) [RH = 89%]
Pressure (altimeter): 29.97 inches Hg (1015.0 mb)
Winds: from the ESE (110 degrees) at 10 MPH (9 knots; 4.6 m/s)
Visibility: 6 or more miles (10+ km)
Ceiling: at least 12,000 feet AGL
Clouds: scattered clouds at 1900 feet AGL
scattered clouds at 2800 feet AGL
scattered clouds at 4500 feet AGL
Weather: no significant weather observed at this time

METAR text: YPCC 182111Z AUTO 11014G24KT 6000 // SCT020 BKN029 BKN038 24/21 Q1015
Conditions at: YPCC (COCOS ISL INTL A, AU) observed 2111 UTC 18 August 2019
Temperature: 24.0°C (75°F)
Dewpoint: 21.0°C (70°F) [RH = 83%]
Pressure (altimeter): 29.97 inches Hg (1015.0 mb)
Winds: from the ESE (110 degrees) at 16 MPH (14 knots; 7.2 m/s)
gusting to 28 MPH (24 knots; 12.3 m/s)
Visibility: 4 miles ( 6 km)
Ceiling: 2900 feet AGL
Clouds: scattered clouds at 2000 feet AGL
broken clouds at 2900 feet AGL
broken clouds at 3800 feet AGL
Weather: no significant weather observed at this time

METAR text: YPCC 182100Z AUTO 11012KT 9999 // SCT023 SCT033 BKN039 25/21 Q1015
Conditions at: YPCC (COCOS ISL INTL A, AU) observed 2100 UTC 18 August 2019
Temperature: 25.0°C (77°F)
Dewpoint: 21.0°C (70°F) [RH = 79%]
Pressure (altimeter): 29.97 inches Hg (1015.0 mb)
Winds: from the ESE (110 degrees) at 14 MPH (12 knots; 6.2 m/s)
Visibility: 6 or more miles (10+ km)
Ceiling: 3900 feet AGL
Clouds: scattered clouds at 2300 feet AGL
scattered clouds at 3300 feet AGL
broken clouds at 3900 feet AGL
Weather: no significant weather observed at this time

METAR text: YPCC 182030Z AUTO 10012KT 9999 // SCT026 BKN031 BKN070 25/20 Q1015
Conditions at: YPCC (COCOS ISL INTL A, AU) observed 2030 UTC 18 August 2019
Temperature: 25.0°C (77°F)
Dewpoint: 20.0°C (68°F) [RH = 74%]
Pressure (altimeter): 29.97 inches Hg (1015.0 mb)
Winds: from the E (100 degrees) at 14 MPH (12 knots; 6.2 m/s)
Visibility: 6 or more miles (10+ km)
Ceiling: 3100 feet AGL
Clouds: scattered clouds at 2600 feet AGL
broken clouds at 3100 feet AGL
broken clouds at 7000 feet AGL
Weather: no significant weather observed at this time

METAR text: YPCC 182000Z AUTO 10014KT 9999 // SCT024 SCT028 BKN035 25/21 Q1016
Conditions at: YPCC (COCOS ISL INTL A, AU) observed 2000 UTC 18 August 2019
Temperature: 25.0°C (77°F)
Dewpoint: 21.0°C (70°F) [RH = 79%]
Pressure (altimeter): 30.00 inches Hg (1016.0 mb)
Winds: from the E (100 degrees) at 16 MPH (14 knots; 7.2 m/s)
Visibility: 6 or more miles (10+ km)
Ceiling: 3500 feet AGL
Clouds: scattered clouds at 2400 feet AGL
scattered clouds at 2800 feet AGL
broken clouds at 3500 feet AGL
Weather: no significant weather observed at this time

METAR text: YPCC 181930Z AUTO 10010KT 9999 // BKN024 BKN031 OVC063 25/21 Q1016
Conditions at: YPCC (COCOS ISL INTL A, AU) observed 1930 UTC 18 August 2019
Temperature: 25.0°C (77°F)
Dewpoint: 21.0°C (70°F) [RH = 79%]
Pressure (altimeter): 30.00 inches Hg (1016.0 mb)
Winds: from the E (100 degrees) at 12 MPH (10 knots; 5.1 m/s)
Visibility: 6 or more miles (10+ km)
Ceiling: 2400 feet AGL
Clouds: broken clouds at 2400 feet AGL
broken clouds at 3100 feet AGL
overcast cloud deck at 6300 feet AGL
Weather: no significant weather observed at this time

METAR text: YPCC 181900Z AUTO 10010KT 9999 // SCT026 SCT033 25/21 Q1016
Conditions at: YPCC (COCOS ISL INTL A, AU) observed 1900 UTC 18 August 2019
Temperature: 25.0°C (77°F)
Dewpoint: 21.0°C (70°F) [RH = 79%]
Pressure (altimeter): 30.00 inches Hg (1016.0 mb)
Winds: from the E (100 degrees) at 12 MPH (10 knots; 5.1 m/s)
Visibility: 6 or more miles (10+ km)
Ceiling: at least 12,000 feet AGL
Clouds: scattered clouds at 2600 feet AGL
scattered clouds at 3300 feet AGL
Weather: no significant weather observed at this time

METAR text: YPCC 181830Z AUTO 10012KT 9999 // SCT024 BKN033 BKN038 25/21 Q1016
Conditions at: YPCC (COCOS ISL INTL A, AU) observed 1830 UTC 18 August 2019
Temperature: 25.0°C (77°F)
Dewpoint: 21.0°C (70°F) [RH = 79%]
Pressure (altimeter): 30.00 inches Hg (1016.0 mb)
Winds: from the E (100 degrees) at 14 MPH (12 knots; 6.2 m/s)
Visibility: 6 or more miles (10+ km)
Ceiling: 3300 feet AGL
Clouds: scattered clouds at 2400 feet AGL
broken clouds at 3300 feet AGL
broken clouds at 3800 feet AGL
Weather: no significant weather observed at this time

METAR text: YPCC 181800Z AUTO 10012KT 9999 // SCT024 SCT031 25/21 Q1017
Conditions at: YPCC (COCOS ISL INTL A, AU) observed 1800 UTC 18 August 2019
Temperature: 25.0°C (77°F)
Dewpoint: 21.0°C (70°F) [RH = 79%]
Pressure (altimeter): 30.03 inches Hg (1017.0 mb)
Winds: from the E (100 degrees) at 14 MPH (12 knots; 6.2 m/s)
Visibility: 6 or more miles (10+ km)
Ceiling: at least 12,000 feet AGL
Clouds: scattered clouds at 2400 feet AGL
scattered clouds at 3100 feet AGL
Weather: no significant weather observed at this time

METAR text: YPCC 181730Z AUTO 10011KT 9999 // SCT024 BKN033 BKN039 25/21 Q1017
Conditions at: YPCC (COCOS ISL INTL A, AU) observed 1730 UTC 18 August 2019
Temperature: 25.0°C (77°F)
Dewpoint: 21.0°C (70°F) [RH = 79%]
Pressure (altimeter): 30.03 inches Hg (1017.0 mb)
Winds: from the E (100 degrees) at 13 MPH (11 knots; 5.7 m/s)
Visibility: 6 or more miles (10+ km)
Ceiling: 3300 feet AGL
Clouds: scattered clouds at 2400 feet AGL
broken clouds at 3300 feet AGL
broken clouds at 3900 feet AGL
Weather: no significant weather observed at this time

METAR text: YPCC 181700Z AUTO 10013KT 9999 // SCT026 BKN032 BKN039 25/21 Q1017
Conditions at: YPCC (COCOS ISL INTL A, AU) observed 1700 UTC 18 August 2019
Temperature: 25.0°C (77°F)
Dewpoint: 21.0°C (70°F) [RH = 79%]
Pressure (altimeter): 30.03 inches Hg (1017.0 mb)
Winds: from the E (100 degrees) at 15 MPH (13 knots; 6.7 m/s)
Visibility: 6 or more miles (10+ km)
Ceiling: 3200 feet AGL
Clouds: scattered clouds at 2600 feet AGL
broken clouds at 3200 feet AGL
broken clouds at 3900 feet AGL
Weather: no significant weather observed at this time

METAR text: YPCC 181630Z AUTO 11012KT 9999 // SCT026 SCT034 BKN040 25/21 Q1017
Conditions at: YPCC (COCOS ISL INTL A, AU) observed 1630 UTC 18 August 2019
Temperature: 25.0°C (77°F)
Dewpoint: 21.0°C (70°F) [RH = 79%]
Pressure (altimeter): 30.03 inches Hg (1017.0 mb)
Winds: from the ESE (110 degrees) at 14 MPH (12 knots; 6.2 m/s)
Visibility: 6 or more miles (10+ km)
Ceiling: 4000 feet AGL
Clouds: scattered clouds at 2600 feet AGL
scattered clouds at 3400 feet AGL
broken clouds at 4000 feet AGL
Weather: no significant weather observed at this time

METAR text: YPCC 181600Z AUTO 10015KT 9999 // SCT026 SCT036 25/21 Q1017
Conditions at: YPCC (COCOS ISL INTL A, AU) observed 1600 UTC 18 August 2019
Temperature: 25.0°C (77°F)
Dewpoint: 21.0°C (70°F) [RH = 79%]
Pressure (altimeter): 30.03 inches Hg (1017.0 mb)
Winds: from the E (100 degrees) at 17 MPH (15 knots; 7.7 m/s)
Visibility: 6 or more miles (10+ km)
Ceiling: at least 12,000 feet AGL
Clouds: scattered clouds at 2600 feet AGL
scattered clouds at 3600 feet AGL
Weather: no significant weather observed at this time

METAR text: YPCC 181530Z AUTO 10012KT 9999 // SCT027 SCT033 BKN040 26/21 Q1017
Conditions at: YPCC (COCOS ISL INTL A, AU) observed 1530 UTC 18 August 2019
Temperature: 26.0°C (79°F)
Dewpoint: 21.0°C (70°F) [RH = 74%]
Pressure (altimeter): 30.03 inches Hg (1017.0 mb)
Winds: from the E (100 degrees) at 14 MPH (12 knots; 6.2 m/s)
Visibility: 6 or more miles (10+ km)
Ceiling: 4000 feet AGL
Clouds: scattered clouds at 2700 feet AGL
scattered clouds at 3300 feet AGL
broken clouds at 4000 feet AGL
Weather: no significant weather observed at this time

METAR text: YPCC 181500Z AUTO 10014KT 9999 // SCT026 SCT034 BKN041 25/20 Q1017
Conditions at: YPCC (COCOS ISL INTL A, AU) observed 1500 UTC 18 August 2019
Temperature: 25.0°C (77°F)
Dewpoint: 20.0°C (68°F) [RH = 74%]
Pressure (altimeter): 30.03 inches Hg (1017.0 mb)
Winds: from the E (100 degrees) at 16 MPH (14 knots; 7.2 m/s)
Visibility: 6 or more miles (10+ km)
Ceiling: 4100 feet AGL
Clouds: scattered clouds at 2600 feet AGL
scattered clouds at 3400 feet AGL
broken clouds at 4100 feet AGL
Weather: no significant weather observed at this time

METAR text: YPCC 181430Z AUTO 11012KT 9999 // SCT026 BKN033 BKN038 26/21 Q1017
Conditions at: YPCC (COCOS ISL INTL A, AU) observed 1430 UTC 18 August 2019
Temperature: 26.0°C (79°F)
Dewpoint: 21.0°C (70°F) [RH = 74%]
Pressure (altimeter): 30.03 inches Hg (1017.0 mb)
Winds: from the ESE (110 degrees) at 14 MPH (12 knots; 6.2 m/s)
Visibility: 6 or more miles (10+ km)
Ceiling: 3300 feet AGL
Clouds: scattered clouds at 2600 feet AGL
broken clouds at 3300 feet AGL
broken clouds at 3800 feet AGL
Weather: no significant weather observed at this time

METAR text: YPCC 181400Z AUTO 10014KT 9999 // SCT025 SCT036 BKN042 26/21 Q1017
Conditions at: YPCC (COCOS ISL INTL A, AU) observed 1400 UTC 18 August 2019
Temperature: 26.0°C (79°F)
Dewpoint: 21.0°C (70°F) [RH = 74%]
Pressure (altimeter): 30.03 inches Hg (1017.0 mb)
Winds: from the E (100 degrees) at 16 MPH (14 knots; 7.2 m/s)
Visibility: 6 or more miles (10+ km)
Ceiling: 4200 feet AGL
Clouds: scattered clouds at 2500 feet AGL
scattered clouds at 3600 feet AGL
broken clouds at 4200 feet AGL
Weather: no significant weather observed at this time

METAR text: YPCC 181330Z AUTO 10013KT 9999 // SCT025 BKN034 OVC039 26/21 Q1016
Conditions at: YPCC (COCOS ISL INTL A, AU) observed 1330 UTC 18 August 2019
Temperature: 26.0°C (79°F)
Dewpoint: 21.0°C (70°F) [RH = 74%]
Pressure (altimeter): 30.00 inches Hg (1016.0 mb)
Winds: from the E (100 degrees) at 15 MPH (13 knots; 6.7 m/s)
Visibility: 6 or more miles (10+ km)
Ceiling: 3400 feet AGL
Clouds: scattered clouds at 2500 feet AGL
broken clouds at 3400 feet AGL
overcast cloud deck at 3900 feet AGL
Weather: no significant weather observed at this time

METAR text: YPCC 181317Z AUTO 11012KT 9999 // SCT025 BKN032 OVC039 26/22 Q1016
Conditions at: YPCC (COCOS ISL INTL A, AU) observed 1317 UTC 18 August 2019
Temperature: 26.0°C (79°F)
Dewpoint: 22.0°C (72°F) [RH = 79%]
Pressure (altimeter): 30.00 inches Hg (1016.0 mb)
Winds: from the ESE (110 degrees) at 14 MPH (12 knots; 6.2 m/s)
Visibility: 6 or more miles (10+ km)
Ceiling: 3200 feet AGL
Clouds: scattered clouds at 2500 feet AGL
broken clouds at 3200 feet AGL
overcast cloud deck at 3900 feet AGL
Weather: no significant weather observed at this time

METAR text: YPCC 181300Z AUTO 11014KT 3500 // SCT025 SCT033 BKN039 26/21 Q1016
Conditions at: YPCC (COCOS ISL INTL A, AU) observed 1300 UTC 18 August 2019
Temperature: 26.0°C (79°F)
Dewpoint: 21.0°C (70°F) [RH = 74%]
Pressure (altimeter): 30.00 inches Hg (1016.0 mb)
Winds: from the ESE (110 degrees) at 16 MPH (14 knots; 7.2 m/s)
Visibility: 2.17 miles (3.49 km)
Ceiling: 3900 feet AGL
Clouds: scattered clouds at 2500 feet AGL
scattered clouds at 3300 feet AGL
broken clouds at 3900 feet AGL
Weather: no significant weather observed at this time

METAR text: YPCC 181230Z AUTO 11013KT 3000 // SCT025 SCT034 BKN042 25/21 Q1016
Conditions at: YPCC (COCOS ISL INTL A, AU) observed 1230 UTC 18 August 2019
Temperature: 25.0°C (77°F)
Dewpoint: 21.0°C (70°F) [RH = 79%]
Pressure (altimeter): 30.00 inches Hg (1016.0 mb)
Winds: from the ESE (110 degrees) at 15 MPH (13 knots; 6.7 m/s)
Visibility: 1.86 miles (2.99 km)
Ceiling: 4200 feet AGL
Clouds: scattered clouds at 2500 feet AGL
scattered clouds at 3400 feet AGL
broken clouds at 4200 feet AGL
Weather: no significant weather observed at this time

METAR text: YPCC 181220Z AUTO 11014KT 5000 // SCT025 BKN034 BKN041 25/21 Q1015
Conditions at: YPCC (COCOS ISL INTL A, AU) observed 1220 UTC 18 August 2019
Temperature: 25.0°C (77°F)
Dewpoint: 21.0°C (70°F) [RH = 79%]
Pressure (altimeter): 29.97 inches Hg (1015.0 mb)
Winds: from the ESE (110 degrees) at 16 MPH (14 knots; 7.2 m/s)
Visibility: 3 miles ( 5 km)
Ceiling: 3400 feet AGL
Clouds: scattered clouds at 2500 feet AGL
broken clouds at 3400 feet AGL
broken clouds at 4100 feet AGL
Weather: no significant weather observed at this time

METAR text: YPCC 181200Z AUTO 11012KT 9999 // SCT025 BKN035 OVC041 26/21 Q1015
Conditions at: YPCC (COCOS ISL INTL A, AU) observed 1200 UTC 18 August 2019
Temperature: 26.0°C (79°F)
Dewpoint: 21.0°C (70°F) [RH = 74%]
Pressure (altimeter): 29.97 inches Hg (1015.0 mb)
Winds: from the ESE (110 degrees) at 14 MPH (12 knots; 6.2 m/s)
Visibility: 6 or more miles (10+ km)
Ceiling: 3500 feet AGL
Clouds: scattered clouds at 2500 feet AGL
broken clouds at 3500 feet AGL
overcast cloud deck at 4100 feet AGL
Weather: no significant weather observed at this time

METAR text: YPCC 181130Z AUTO 11012KT 9999 // SCT025 BKN035 BKN041 26/21 Q1015
Conditions at: YPCC (COCOS ISL INTL A, AU) observed 1130 UTC 18 August 2019
Temperature: 26.0°C (79°F)
Dewpoint: 21.0°C (70°F) [RH = 74%]
Pressure (altimeter): 29.97 inches Hg (1015.0 mb)
Winds: from the ESE (110 degrees) at 14 MPH (12 knots; 6.2 m/s)
Visibility: 6 or more miles (10+ km)
Ceiling: 3500 feet AGL
Clouds: scattered clouds at 2500 feet AGL
broken clouds at 3500 feet AGL
broken clouds at 4100 feet AGL
Weather: no significant weather observed at this time

METAR text: YPCC 181100Z AUTO 11013KT 9999 // BKN025 OVC036 26/22 Q1015
Conditions at: YPCC (COCOS ISL INTL A, AU) observed 1100 UTC 18 August 2019
Temperature: 26.0°C (79°F)
Dewpoint: 22.0°C (72°F) [RH = 79%]
Pressure (altimeter): 29.97 inches Hg (1015.0 mb)
Winds: from the ESE (110 degrees) at 15 MPH (13 knots; 6.7 m/s)
Visibility: 6 or more miles (10+ km)
Ceiling: 2500 feet AGL
Clouds: broken clouds at 2500 feet AGL
overcast cloud deck at 3600 feet AGL
Weather: no significant weather observed at this time

METAR text: YPCC 181030Z AUTO 11014KT 9999 // BKN027 OVC032 26/21 Q1014
Conditions at: YPCC (COCOS ISL INTL A, AU) observed 1030 UTC 18 August 2019
Temperature: 26.0°C (79°F)
Dewpoint: 21.0°C (70°F) [RH = 74%]
Pressure (altimeter): 29.94 inches Hg (1014.0 mb)
Winds: from the ESE (110 degrees) at 16 MPH (14 knots; 7.2 m/s)
Visibility: 6 or more miles (10+ km)
Ceiling: 2700 feet AGL
Clouds: broken clouds at 2700 feet AGL
overcast cloud deck at 3200 feet AGL
Weather: no significant weather observed at this time

METAR text: YPCC 181000Z AUTO 11013KT 9999 // SCT027 BKN031 26/21 Q1014
Conditions at: YPCC (COCOS ISL INTL A, AU) observed 1000 UTC 18 August 2019
Temperature: 26.0°C (79°F)
Dewpoint: 21.0°C (70°F) [RH = 74%]
Pressure (altimeter): 29.94 inches Hg (1014.0 mb)
Winds: from the ESE (110 degrees) at 15 MPH (13 knots; 6.7 m/s)
Visibility: 6 or more miles (10+ km)
Ceiling: 3100 feet AGL
Clouds: scattered clouds at 2700 feet AGL
broken clouds at 3100 feet AGL
Weather: no significant weather observed at this time

METAR text: YPCC 180930Z AUTO 11015KT 9999 // BKN029 BKN034 26/21 Q1014
Conditions at: YPCC (COCOS ISL INTL A, AU) observed 0930 UTC 18 August 2019
Temperature: 26.0°C (79°F)
Dewpoint: 21.0°C (70°F) [RH = 74%]
Pressure (altimeter): 29.94 inches Hg (1014.0 mb)
Winds: from the ESE (110 degrees) at 17 MPH (15 knots; 7.7 m/s)
Visibility: 6 or more miles (10+ km)
Ceiling: 2900 feet AGL
Clouds: broken clouds at 2900 feet AGL
broken clouds at 3400 feet AGL
Weather: no significant weather observed at this time

METAR text: YPCC 180900Z AUTO 11015KT 9999 // BKN029 27/21 Q1014
Conditions at: YPCC (COCOS ISL INTL A, AU) observed 0900 UTC 18 August 2019
Temperature: 27.0°C (81°F)
Dewpoint: 21.0°C (70°F) [RH = 70%]
Pressure (altimeter): 29.94 inches Hg (1014.0 mb)
Winds: from the ESE (110 degrees) at 17 MPH (15 knots; 7.7 m/s)
Visibility: 6 or more miles (10+ km)
Ceiling: 2900 feet AGL
Clouds: broken clouds at 2900 feet AGL
Weather: no significant weather observed at this time

METAR text: YPCC 180830Z AUTO 11013KT 9999 // BKN029 OVC036 27/21 Q1014
Conditions at: YPCC (COCOS ISL INTL A, AU) observed 0830 UTC 18 August 2019
Temperature: 27.0°C (81°F)
Dewpoint: 21.0°C (70°F) [RH = 70%]
Pressure (altimeter): 29.94 inches Hg (1014.0 mb)
Winds: from the ESE (110 degrees) at 15 MPH (13 knots; 6.7 m/s)
Visibility: 6 or more miles (10+ km)
Ceiling: 2900 feet AGL
Clouds: broken clouds at 2900 feet AGL
overcast cloud deck at 3600 feet AGL
Weather: no significant weather observed at this time

METAR text: YPCC 180800Z AUTO 11015KT 9999 // BKN031 OVC038 27/21 Q1014
Conditions at: YPCC (COCOS ISL INTL A, AU) observed 0800 UTC 18 August 2019
Temperature: 27.0°C (81°F)
Dewpoint: 21.0°C (70°F) [RH = 70%]
Pressure (altimeter): 29.94 inches Hg (1014.0 mb)
Winds: from the ESE (110 degrees) at 17 MPH (15 knots; 7.7 m/s)
Visibility: 6 or more miles (10+ km)
Ceiling: 3100 feet AGL
Clouds: broken clouds at 3100 feet AGL
overcast cloud deck at 3800 feet AGL
Weather: no significant weather observed at this time

Forecast for: YPCC (COCOS ISL INTL A, AU)
Text: TAF YPCC 191727Z 1918/2018 09016G26KT 9999 SCT025 SCT035
Forecast period: 1800 UTC 19 August 2019 to 1600 UTC 20 August 2019
Forecast type: FROM: standard forecast or significant change
Winds: from the E (90 degrees) at 18 MPH (16 knots; 8.2 m/s)
gusting to 30 MPH (26 knots; 13.4 m/s)
Visibility: 6 or more miles 10+ km)
Ceiling: at least 12,000 feet AGL
Clouds: scattered clouds at 2500 feet AGL
scattered clouds at 3500 feet AGL
Weather: no significant weather forecast for this period
Text: FM201600 10014KT 9999 SCT025 INTER 1918/2002 4000 SHRA SCT015 INTER 2016/2018 4000 SHRA SCT015
Forecast period: 1600 to 1800 UTC 20 August 2019
Forecast type: FROM: standard forecast or significant change
Winds: from the E (100 degrees) at 16 MPH (14 knots; 7.2 m/s)
Visibility: 6 or more miles 10+ km)
Ceiling: at least 12,000 feet AGL
Clouds: scattered clouds at 2500 feet AGL
Weather: no significant weather forecast for this period
Text:
Forecast period: 1800 UTC 19 August 2019 to 0200 UTC 20 August 2019
Forecast type: TEMPORARY: The following changes expected for less than half the time period
Visibility: 2.49 miles (4.01 km)
Ceiling: at least 12,000 feet AGL
Clouds: scattered clouds at 1500 feet AGL
Weather: SHRA  (rain showers)
Text:
Forecast period: 1600 to 1800 UTC 20 August 2019
Forecast type: TEMPORARY: The following changes expected for less than half the time period
Visibility: 2.49 miles (4.01 km)
Ceiling: at least 12,000 feet AGL
Clouds: scattered clouds at 1500 feet AGL
Weather: SHRA  (rain showers)